Lawton, MI

6:03 AM EDT on May 27, 2015 (GMT -0400)
South Haven | | Change Station
CLOSE
Current Station
Airport
Location: South Haven,
Elevation: 666 ft
Nearby Weather Stations

Elev 666 ft 42.35 °N, 86.26 °W | Updated 9 minutes ago

Overcast
Overcast
68 °F
Feels Like 68 °F
N
16
Wind Variable Wind from SW
Gusts 24 mph

Today
High -- | Low -- °F
--% Chance of Precip.
Yesterday
High -- | Low -- °F
Precip. -- in
6:12 AM 9:08 PM
Waxing Gibbous, 66% visible
Pressure 29.89 in
Visibility 10.0 miles
Clouds Scattered Clouds 3600 ft
Scattered Clouds 4200 ft
Mostly Cloudy 10000 ft
Dew Point 59 °F
Humidity 72%
Rainfall 0.00 in
Snow Depth Not available.
UV 0 out of 12
Pollen 6.80 out of 12
Air Quality Not available.
Flu Activity Sporadic
METAR KLWA 270954Z AUTO 23014G21KT 10SM SCT036 SCT042 BKN100 20/15 A2989 RMK AO2 T02020151

More Conditions Fewer Conditions

Pressure 29.89 in
Visibility 10.0 miles
Clouds Scattered Clouds 3600 ft
Scattered Clouds 4200 ft
Mostly Cloudy 10000 ft
Dew Point 59 °F
Humidity 72%
Rainfall 0.00 in
Snow Depth Not available.
UV 0 out of 12
Pollen 6.80 out of 12
Air Quality Not available.
Flu Activity Sporadic
METAR KLWA 270954Z AUTO 23014G21KT 10SM SCT036 SCT042 BKN100 20/15 A2989 RMK AO2 T02020151

More Conditions Fewer Conditions

10-Day Weather Forecast

Almanac

Astronomy

May. 27, 2015 Rise Set
Actual Time
Civil Twilight
Nautical Twilight
Astronomical Twilight
Moon
Length of Visible Light
Length of Day
Tomorrow will be .
, % of the Moon is Illuminated

Today's Extremes

State Highs State Lows

Community

WunderPhotos

Upload Photos

1,824,635 photos uploaded!

WunderBlogs® & News

Nearby

Air Quality

  Air Quality AQ Index Pollutant
Not available.

Snow Depth

Station Depth Elevation

Earthquake Activity

City Distance Mag. Time & Date
Minimum magnitude displayed is 2.5.

Coastal Water Temperatures

Place Temperature

Stations

Nearby Weather Stations

Station Location Temp. Windchill Dew Point Humidity Wind Precip. Elev Updated Type